Time;durP1;ratioP1;P1;durP2;ratioP2;P2;SDS_P1;SDS_P2;PMS_P1;PMS_P2;Temp;Humidity;BMP_temperature;BMP_pressure;BME280_temperature;BME280_humidity;BME280_pressure;Samples;Min_cycle;Max_cycle;Signal;HPM_P1;HPM_P2
2023/02/18 00:01:16;;;;;;;5.43;5.13;;;3.50;99.90;;;;;;6092731;23;20376;-79
2023/02/18 00:03:44;;;;;;;5.07;4.78;;;3.50;99.90;;;;;;6092826;23;20412;-79
2023/02/18 00:06:17;;;;;;;4.95;4.65;;;3.50;99.90;;;;;;6089201;23;20385;-79
2023/02/18 00:08:45;;;;;;;4.72;4.53;;;3.50;99.90;;;;;;6093501;23;20896;-79
2023/02/18 00:11:13;;;;;;;5.60;5.30;;;3.50;99.90;;;;;;6092427;23;20384;-80
2023/02/18 00:13:40;;;;;;;5.55;5.25;;;3.50;99.90;;;;;;6093185;23;20441;-79
2023/02/18 00:16:09;;;;;;;4.93;4.63;;;3.50;99.90;;;;;;6066963;23;20473;-80
2023/02/18 00:18:38;;;;;;;5.53;5.23;;;3.40;99.90;;;;;;6068615;23;20768;-79
2023/02/18 00:21:06;;;;;;;5.50;5.20;;;3.40;99.90;;;;;;6067126;23;20401;-79
2023/02/18 00:23:33;;;;;;;4.95;4.65;;;3.30;99.90;;;;;;6093148;23;20381;-79
2023/02/18 00:26:13;;;;;;;4.93;4.68;;;3.30;99.90;;;;;;6092298;23;20374;-78
2023/02/18 00:28:41;;;;;;;5.50;5.20;;;3.30;99.90;;;;;;6067877;23;20437;-79
2023/02/18 00:31:16;;;;;;;5.80;5.30;;;3.30;99.90;;;;;;6092380;23;20378;-79
2023/02/18 00:33:43;;;;;;;5.40;5.10;;;3.20;99.90;;;;;;6068279;23;20381;-78
2023/02/18 00:36:15;;;;;;;5.28;4.97;;;3.20;99.90;;;;;;6066716;23;20393;-79
2023/02/18 00:38:46;;;;;;;5.60;5.30;;;3.20;99.90;;;;;;6093440;23;20702;-78
2023/02/18 00:41:14;;;;;;;6.03;5.72;;;3.10;99.90;;;;;;6092618;23;20834;-78
2023/02/18 00:43:41;;;;;;;6.00;5.70;;;3.00;99.90;;;;;;6093300;23;20402;-79
2023/02/18 00:46:07;;;;;;;5.97;5.68;;;3.00;99.90;;;;;;6067417;23;20405;-78
2023/02/18 00:48:35;;;;;;;5.55;5.25;;;3.00;99.90;;;;;;6068337;23;20715;-78
2023/02/18 00:51:03;;;;;;;5.47;5.17;;;3.00;99.90;;;;;;6067244;23;20466;-80
2023/02/18 00:53:31;;;;;;;5.22;4.88;;;3.00;99.90;;;;;;6093420;23;20470;-79
2023/02/18 00:55:58;;;;;;;5.40;5.10;;;3.10;99.90;;;;;;6067382;23;20759;-79
2023/02/18 00:58:26;;;;;;;5.20;4.90;;;3.00;99.90;;;;;;6068348;23;20706;-79
2023/02/18 01:00:54;;;;;;;5.30;5.00;;;3.00;99.90;;;;;;6068044;23;20377;-79
2023/02/18 01:03:22;;;;;;;5.85;5.45;;;2.90;99.90;;;;;;6065629;23;20683;-79
2023/02/18 01:05:50;;;;;;;5.35;5.07;;;2.90;99.90;;;;;;6093081;23;20377;-79
2023/02/18 01:08:18;;;;;;;5.80;5.50;;;2.90;99.90;;;;;;6066966;23;20432;-79
2023/02/18 01:10:47;;;;;;;4.53;4.32;;;2.90;99.90;;;;;;6068077;23;20505;-79
2023/02/18 01:13:15;;;;;;;4.72;4.53;;;2.90;99.90;;;;;;6043127;23;20381;-78
2023/02/18 01:15:42;;;;;;;5.40;5.10;;;2.80;99.90;;;;;;6067964;23;20377;-79
2023/02/18 01:18:10;;;;;;;5.50;5.20;;;2.80;99.90;;;;;;6067244;23;20373;-78
2023/02/18 01:20:38;;;;;;;5.05;4.75;;;2.80;99.90;;;;;;6067873;23;20480;-78
2023/02/18 01:23:05;;;;;;;4.70;4.50;;;2.70;99.90;;;;;;6066744;23;20413;-80
2023/02/18 01:25:35;;;;;;;4.60;4.40;;;2.70;99.90;;;;;;6067764;23;20476;-79
2023/02/18 01:28:03;;;;;;;4.63;4.43;;;2.60;99.90;;;;;;6066623;23;20432;-79
2023/02/18 01:30:30;;;;;;;4.70;4.40;;;2.60;99.90;;;;;;6094990;23;20384;-79
2023/02/18 01:32:57;;;;;;;4.65;4.43;;;2.60;99.90;;;;;;6094793;23;20385;-79
2023/02/18 01:35:24;;;;;;;4.70;4.50;;;2.60;99.90;;;;;;6069274;23;20470;-79
2023/02/18 01:37:51;;;;;;;4.20;4.00;;;2.60;99.90;;;;;;6069891;23;20412;-78
2023/02/18 01:40:23;;;;;;;5.07;4.78;;;2.60;99.90;;;;;;6068755;23;20461;-78
2023/02/18 01:42:50;;;;;;;5.05;4.75;;;2.50;99.90;;;;;;6069779;23;20439;-78
2023/02/18 01:45:32;;;;;;;4.30;4.10;;;2.50;99.90;;;;;;6093763;23;20383;-78
2023/02/18 01:48:09;;;;;;;4.25;4.05;;;2.50;99.90;;;;;;6068674;23;20373;-79
2023/02/18 01:50:39;;;;;;;5.35;5.05;;;2.50;99.90;;;;;;6069035;23;20664;-78
2023/02/18 01:53:06;;;;;;;5.00;4.70;;;2.50;99.90;;;;;;6068039;23;20514;-79
2023/02/18 01:55:36;;;;;;;5.82;5.43;;;2.40;99.90;;;;;;6093619;23;20436;-80
2023/02/18 01:58:03;;;;;;;5.20;4.90;;;2.30;99.90;;;;;;6070076;23;20381;-79
2023/02/18 02:00:31;;;;;;;6.22;5.82;;;2.30;99.90;;;;;;6068873;23;20822;-76
2023/02/18 02:24:53;;;;;;;5.37;5.07;;;2.30;99.90;;;;;;6100266;23;20417;-78
2023/02/18 02:27:55;;;;;;;5.97;5.57;;;2.10;99.90;;;;;;6096713;23;20442;-78
2023/02/18 02:31:00;;;;;;;5.97;5.68;;;1.90;99.90;;;;;;6114668;23;20405;-77
2023/02/18 02:33:55;;;;;;;5.63;5.30;;;1.80;99.90;;;;;;6096836;23;20884;-78
2023/02/18 02:36:35;;;;;;;4.82;4.53;;;1.80;99.90;;;;;;6096312;23;20474;-78
2023/02/18 02:39:33;;;;;;;5.70;5.32;;;1.80;99.90;;;;;;6097961;23;20463;-78
2023/02/18 02:42:50;;;;;;;5.18;4.90;;;1.80;99.90;;;;;;6122407;23;20468;-78
2023/02/18 02:45:46;;;;;;;5.13;4.93;;;1.90;99.90;;;;;;6048978;23;20439;-78
2023/02/18 02:48:26;;;;;;;4.63;4.43;;;1.90;99.90;;;;;;6095284;23;20447;-78
2023/02/18 02:51:14;;;;;;;5.10;4.80;;;1.90;99.90;;;;;;6096757;23;20439;-78
2023/02/18 02:53:42;;;;;;;5.03;4.72;;;1.90;99.90;;;;;;6121224;23;20526;-78
2023/02/18 02:56:17;;;;;;;5.70;5.38;;;2.00;99.90;;;;;;6123225;23;20815;-78
2023/02/18 02:58:57;;;;;;;4.50;4.30;;;1.90;99.90;;;;;;6121858;23;20383;-78
2023/02/18 03:01:54;;;;;;;5.03;4.82;;;1.90;99.90;;;;;;6096504;23;20376;-78
2023/02/18 03:05:00;;;;;;;4.82;4.63;;;2.00;99.90;;;;;;6077592;23;20473;-78
2023/02/18 03:07:58;;;;;;;4.70;4.50;;;1.90;99.90;;;;;;6080302;23;20448;-78
2023/02/18 03:10:45;;;;;;;4.88;4.57;;;1.80;99.90;;;;;;6043922;23;20385;-77
2023/02/18 03:13:20;;;;;;;4.50;4.30;;;1.80;99.90;;;;;;6093551;23;20441;-78
2023/02/18 03:15:52;;;;;;;4.40;4.20;;;1.80;99.90;;;;;;6066841;23;20430;-78
2023/02/18 03:18:41;;;;;;;5.00;4.73;;;1.80;99.90;;;;;;6093016;23;20490;-78
2023/02/18 03:21:25;;;;;;;4.00;3.80;;;1.70;99.90;;;;;;6092849;23;20442;-78
2023/02/18 03:24:15;;;;;;;3.30;3.20;;;1.70;99.90;;;;;;6066684;23;20449;-78
2023/02/18 03:26:50;;;;;;;3.05;2.95;;;1.60;99.90;;;;;;6092943;23;20427;-78
2023/02/18 03:29:19;;;;;;;3.22;3.13;;;1.50;99.90;;;;;;6067427;23;20369;-78
2023/02/18 03:31:51;;;;;;;4.25;4.05;;;1.50;99.90;;;;;;6066251;23;20498;-78
2023/02/18 03:34:25;;;;;;;4.85;4.65;;;1.50;99.90;;;;;;6091920;23;20458;-74
2023/02/18 03:36:53;;;;;;;4.00;3.80;;;1.40;99.90;;;;;;6092672;23;20512;-75
2023/02/18 03:39:22;;;;;;;4.43;4.22;;;1.30;99.90;;;;;;6091141;23;20415;-76
2023/02/18 03:41:48;;;;;;;4.97;4.68;;;1.30;99.90;;;;;;6067960;23;20455;-74
2023/02/18 03:44:15;;;;;;;4.50;4.30;;;1.30;99.90;;;;;;6065725;23;22562;-75
2023/02/18 03:46:44;;;;;;;5.40;5.10;;;1.30;99.90;;;;;;6067769;23;20415;-75
2023/02/18 03:49:12;;;;;;;5.57;5.27;;;1.40;99.90;;;;;;6066271;23;20756;-74
2023/02/18 03:51:40;;;;;;;5.68;5.38;;;1.40;99.90;;;;;;6067794;23;20385;-75
2023/02/18 03:54:07;;;;;;;5.60;5.28;;;1.40;99.90;;;;;;6090917;23;20758;-75
2023/02/18 03:56:36;;;;;;;5.63;5.32;;;1.40;99.90;;;;;;6093511;23;20694;-78
2023/02/18 03:59:03;;;;;;;6.30;5.90;;;1.40;99.90;;;;;;6091833;23;20469;-78
2023/02/18 04:01:30;;;;;;;5.90;5.53;;;1.40;99.90;;;;;;6092899;23;20389;-78
2023/02/18 04:03:57;;;;;;;6.75;6.35;;;1.30;99.90;;;;;;6092457;23;20412;-78
2023/02/18 04:06:24;;;;;;;6.18;5.78;;;1.30;99.90;;;;;;6091121;23;20405;-78
2023/02/18 04:08:51;;;;;;;5.93;5.63;;;1.30;99.90;;;;;;6093262;23;20701;-78
2023/02/18 04:11:18;;;;;;;6.10;5.70;;;1.30;99.90;;;;;;6092241;23;20386;-78
2023/02/18 04:13:45;;;;;;;5.55;5.25;;;1.30;99.90;;;;;;6067167;23;20491;-77
2023/02/18 04:16:12;;;;;;;5.40;5.10;;;1.30;99.90;;;;;;6066584;23;20385;-77
2023/02/18 04:18:39;;;;;;;5.03;4.78;;;1.30;99.90;;;;;;6092702;23;20375;-77
2023/02/18 04:21:06;;;;;;;5.65;5.30;;;1.30;99.90;;;;;;6091539;23;20401;-77
2023/02/18 04:23:33;;;;;;;5.75;5.40;;;1.30;99.90;;;;;;6067620;23;20373;-77
2023/02/18 04:26:00;;;;;;;5.22;4.93;;;1.20;99.90;;;;;;6067634;23;20877;-78
2023/02/18 04:28:27;;;;;;;5.40;5.10;;;1.20;99.90;;;;;;6067004;23;20373;-77
2023/02/18 04:30:54;;;;;;;5.15;4.85;;;1.20;99.90;;;;;;6067645;23;20376;-77
2023/02/18 04:33:21;;;;;;;4.70;4.50;;;1.20;99.90;;;;;;6091691;23;20444;-77
2023/02/18 04:35:47;;;;;;;5.60;5.30;;;1.20;99.90;;;;;;6092351;23;20396;-77
2023/02/18 04:38:14;;;;;;;5.30;5.00;;;1.20;99.90;;;;;;6066333;23;20819;-77
2023/02/18 04:40:41;;;;;;;5.72;5.38;;;1.10;99.90;;;;;;6067677;23;20401;-77
2023/02/18 04:43:08;;;;;;;5.40;5.10;;;1.10;99.90;;;;;;6091582;23;20457;-77
2023/02/18 04:45:35;;;;;;;5.20;4.90;;;1.10;99.90;;;;;;6066700;23;20440;-77
2023/02/18 04:48:02;;;;;;;4.55;4.35;;;1.10;99.90;;;;;;6067790;23;20389;-77
2023/02/18 04:50:29;;;;;;;4.07;3.88;;;0.90;99.90;;;;;;6091507;23;20440;-77
2023/02/18 04:52:56;;;;;;;3.70;3.50;;;0.90;99.90;;;;;;6067337;23;20377;-77
2023/02/18 04:55:22;;;;;;;4.72;4.53;;;0.90;99.90;;;;;;6066002;23;20408;-77
2023/02/18 04:57:49;;;;;;;5.30;5.00;;;0.80;99.90;;;;;;6067646;23;20560;-77
2023/02/18 05:00:18;;;;;;;5.32;5.00;;;0.80;99.90;;;;;;6066274;23;20405;-77
2023/02/18 05:02:45;;;;;;;5.90;5.50;;;0.80;99.90;;;;;;6067671;23;20409;-77
2023/02/18 05:05:13;;;;;;;6.22;5.82;;;0.80;99.90;;;;;;6068970;23;20432;-77
2023/02/18 05:07:41;;;;;;;5.10;4.80;;;0.70;99.90;;;;;;6095737;23;20381;-77
2023/02/18 05:10:10;;;;;;;5.10;4.80;;;0.70;99.90;;;;;;6092582;23;20376;-77
2023/02/18 05:12:37;;;;;;;4.75;4.50;;;0.60;99.90;;;;;;6070106;23;20422;-77
2023/02/18 05:15:04;;;;;;;4.30;4.10;;;0.60;99.90;;;;;;6070422;23;20377;-77
2023/02/18 05:17:31;;;;;;;4.95;4.72;;;0.60;99.90;;;;;;6069793;23;20377;-77
2023/02/18 05:19:58;;;;;;;6.00;5.70;;;0.60;99.90;;;;;;6070836;23;20466;-78
2023/02/18 05:22:25;;;;;;;5.32;5.03;;;0.60;99.90;;;;;;6069698;23;20409;-77
2023/02/18 05:24:52;;;;;;;4.87;4.60;;;0.60;99.90;;;;;;6095471;23;20496;-76
2023/02/18 05:27:19;;;;;;;4.35;4.15;;;0.60;99.90;;;;;;6094960;23;20436;-77
2023/02/18 05:29:46;;;;;;;4.43;4.22;;;0.70;99.90;;;;;;6070465;23;20377;-77
2023/02/18 05:32:13;;;;;;;4.30;4.10;;;0.70;99.90;;;;;;6069542;23;20494;-78
2023/02/18 05:34:39;;;;;;;4.53;4.32;;;0.70;99.90;;;;;;6070653;23;20412;-77
2023/02/18 05:37:07;;;;;;;4.57;4.38;;;0.70;99.90;;;;;;6070596;23;20412;-78
2023/02/18 05:39:33;;;;;;;4.18;3.97;;;0.60;99.90;;;;;;6069427;23;20393;-77
2023/02/18 05:42:00;;;;;;;4.07;3.88;;;0.60;99.90;;;;;;6095974;23;20397;-77
2023/02/18 05:44:31;;;;;;;4.03;3.83;;;0.60;99.90;;;;;;6069230;23;20449;-77
2023/02/18 05:47:09;;;;;;;3.88;3.67;;;0.50;99.90;;;;;;6070086;23;20381;-77
2023/02/18 05:49:38;;;;;;;3.75;3.65;;;0.50;99.90;;;;;;6094922;23;20393;-77
2023/02/18 05:52:06;;;;;;;3.75;3.55;;;0.50;99.90;;;;;;6070611;23;20381;-77
2023/02/18 05:54:34;;;;;;;3.90;3.70;;;0.40;99.90;;;;;;6094690;23;20525;-78
2023/02/18 05:57:02;;;;;;;3.83;3.63;;;0.30;99.90;;;;;;6095173;23;20381;-77
2023/02/18 05:59:29;;;;;;;4.82;4.63;;;0.40;99.90;;;;;;6069684;23;20405;-77
2023/02/18 06:01:56;;;;;;;4.50;4.30;;;0.30;99.90;;;;;;6070553;23;20385;-77
2023/02/18 06:04:23;;;;;;;4.60;4.40;;;0.30;99.90;;;;;;6094296;23;20772;-77
2023/02/18 06:06:50;;;;;;;4.20;4.00;;;0.30;99.90;;;;;;6070505;23;20389;-77
2023/02/18 06:09:16;;;;;;;4.88;4.68;;;0.40;99.90;;;;;;6068888;23;20460;-77
2023/02/18 06:11:43;;;;;;;3.97;3.78;;;0.40;99.90;;;;;;6095729;23;20381;-77
2023/02/18 06:14:10;;;;;;;3.40;3.30;;;0.40;99.90;;;;;;6070549;23;20385;-77
2023/02/18 06:16:37;;;;;;;4.72;4.50;;;0.40;99.90;;;;;;6067924;23;20448;-77
2023/02/18 06:19:04;;;;;;;4.38;4.18;;;0.40;99.90;;;;;;6069153;23;20688;-77
2023/02/18 06:21:31;;;;;;;4.95;4.65;;;0.20;99.90;;;;;;6067977;23;20440;-77
2023/02/18 06:23:58;;;;;;;4.93;4.68;;;0.10;99.90;;;;;;6094176;23;20444;-77
2023/02/18 06:26:25;;;;;;;4.50;4.30;;;0.00;99.90;;;;;;6067653;23;20401;-77
2023/02/18 06:28:51;;;;;;;4.00;3.80;;;-0.10;99.90;;;;;;6093944;23;20700;-77
2023/02/18 06:31:18;;;;;;;4.03;3.83;;;-0.10;99.90;;;;;;6092396;23;20866;-77
2023/02/18 06:33:45;;;;;;;4.20;4.00;;;0.00;99.90;;;;;;6069042;23;20426;-77
2023/02/18 06:36:12;;;;;;;4.90;4.70;;;0.00;99.90;;;;;;6068589;23;20386;-77
2023/02/18 06:38:42;;;;;;;4.40;4.20;;;0.00;99.90;;;;;;6067883;23;20424;-77
2023/02/18 06:41:09;;;;;;;4.07;3.88;;;0.00;99.90;;;;;;6093966;23;20404;-77
2023/02/18 06:43:36;;;;;;;4.57;4.37;;;0.10;99.90;;;;;;6092916;23;20397;-77
2023/02/18 06:46:03;;;;;;;4.57;4.38;;;0.10;99.90;;;;;;6068367;23;20451;-77
2023/02/18 06:48:31;;;;;;;4.40;4.20;;;0.20;99.90;;;;;;6067495;23;20404;-77
2023/02/18 06:50:58;;;;;;;4.75;4.55;;;0.20;99.90;;;;;;6094152;23;20374;-77
2023/02/18 06:53:25;;;;;;;4.90;4.60;;;0.30;99.90;;;;;;6067847;23;20687;-77
2023/02/18 06:55:51;;;;;;;4.40;4.20;;;0.30;99.90;;;;;;6093591;23;20405;-77
2023/02/18 06:58:18;;;;;;;4.20;4.00;;;0.30;99.90;;;;;;6067310;23;20373;-76
2023/02/18 07:00:45;;;;;;;4.57;4.27;;;0.20;99.90;;;;;;6093916;23;20373;-77
2023/02/18 07:03:14;;;;;;;4.20;4.00;;;0.20;99.90;;;;;;6068282;23;20382;-76
2023/02/18 07:05:41;;;;;;;4.38;4.18;;;0.10;99.90;;;;;;6092650;23;20373;-77
2023/02/18 07:08:08;;;;;;;4.20;4.00;;;0.10;99.90;;;;;;6068439;23;20388;-76
2023/02/18 07:10:35;;;;;;;4.00;3.80;;;0.10;99.90;;;;;;6067203;23;20384;-77
2023/02/18 07:13:03;;;;;;;4.35;4.15;;;0.20;99.90;;;;;;6093612;23;20834;-76
2023/02/18 07:15:29;;;;;;;5.40;5.10;;;0.20;99.90;;;;;;6067028;23;20380;-77
2023/02/18 07:17:56;;;;;;;5.10;4.80;;;0.30;99.90;;;;;;6093545;23;20401;-76
2023/02/18 07:20:24;;;;;;;4.60;4.40;;;0.40;99.90;;;;;;6067188;23;20706;-76
2023/02/18 07:22:51;;;;;;;4.50;4.30;;;0.50;99.90;;;;;;6067895;23;20486;-77
2023/02/18 07:25:18;;;;;;;5.50;5.20;;;0.50;99.90;;;;;;6067702;23;20409;-77
2023/02/18 07:27:48;;;;;;;5.35;5.07;;;0.60;99.90;;;;;;6067925;23;20448;-76
2023/02/18 07:30:15;;;;;;;5.50;5.20;;;0.80;99.90;;;;;;6067740;23;20385;-77
2023/02/18 07:32:42;;;;;;;5.55;5.22;;;0.90;99.90;;;;;;6092369;23;20381;-76
2023/02/18 07:35:13;;;;;;;4.68;4.47;;;1.10;99.90;;;;;;6093149;23;20382;-76
2023/02/18 07:37:44;;;;;;;5.50;5.20;;;1.20;99.90;;;;;;6066725;23;20439;-77
2023/02/18 07:40:14;;;;;;;6.07;5.78;;;1.40;99.90;;;;;;6067931;23;20455;-76
2023/02/18 07:42:41;;;;;;;5.25;5.03;;;1.70;99.90;;;;;;6066596;23;20483;-75
2023/02/18 07:45:09;;;;;;;4.40;4.20;;;1.90;99.90;;;;;;6068385;23;20444;-76
2023/02/18 07:47:36;;;;;;;4.55;4.35;;;2.10;99.90;;;;;;6066682;23;20482;-77
2023/02/18 07:50:04;;;;;;;4.18;3.97;;;2.30;99.90;;;;;;6093461;23;20508;-76
2023/02/18 07:52:31;;;;;;;4.50;4.20;;;2.50;99.90;;;;;;6092234;23;20758;-76
2023/02/18 07:54:58;;;;;;;4.22;4.03;;;2.70;99.90;;;;;;6093012;23;20397;-76
2023/02/18 07:57:25;;;;;;;4.78;4.57;;;2.90;99.90;;;;;;6093245;23;20412;-76
2023/02/18 07:59:52;;;;;;;4.53;4.33;;;3.10;99.90;;;;;;6066791;23;21424;-77
2023/02/18 08:02:22;;;;;;;4.95;4.65;;;3.30;99.90;;;;;;6068010;23;20381;-76
2023/02/18 08:04:49;;;;;;;4.80;4.60;;;3.40;99.90;;;;;;6091800;23;20432;-76
2023/02/18 08:07:19;;;;;;;5.22;4.93;;;3.70;99.90;;;;;;6067758;23;20411;-77
2023/02/18 08:09:47;;;;;;;5.20;4.90;;;3.80;99.90;;;;;;6092005;23;20449;-77
2023/02/18 08:12:14;;;;;;;5.45;5.15;;;4.10;99.90;;;;;;6067771;23;20409;-77
2023/02/18 08:14:42;;;;;;;4.90;4.65;;;4.20;99.90;;;;;;6066879;23;20382;-77
2023/02/18 08:17:09;;;;;;;5.03;4.82;;;4.50;99.90;;;;;;6067467;23;20850;-77
2023/02/18 08:19:35;;;;;;;5.50;5.20;;;4.70;99.90;;;;;;6066770;23;20468;-76
2023/02/18 08:22:03;;;;;;;5.60;5.25;;;4.90;99.90;;;;;;6067257;23;20377;-78
2023/02/18 08:24:30;;;;;;;5.30;5.00;;;5.20;99.90;;;;;;6066689;23;20766;-77
2023/02/18 08:26:57;;;;;;;4.93;4.63;;;5.40;99.90;;;;;;6067485;23;20374;-77
2023/02/18 08:29:27;;;;;;;4.85;4.65;;;5.70;99.90;;;;;;6092894;23;20452;-77
2023/02/18 08:31:56;;;;;;;5.45;5.15;;;5.90;99.90;;;;;;6092224;23;20373;-79
2023/02/18 08:34:24;;;;;;;5.45;5.15;;;6.10;99.90;;;;;;6092182;23;20381;-77
2023/02/18 08:36:51;;;;;;;4.50;4.30;;;6.30;99.90;;;;;;6091921;23;20413;-78
2023/02/18 08:39:18;;;;;;;4.80;4.60;;;6.60;99.90;;;;;;6092197;23;20444;-79
2023/02/18 08:41:44;;;;;;;4.88;4.57;;;6.80;99.90;;;;;;6091690;23;20414;-76
2023/02/18 08:44:12;;;;;;;3.97;3.78;;;6.90;99.90;;;;;;6067064;23;20448;-78
2023/02/18 08:46:39;;;;;;;5.05;4.82;;;7.10;99.90;;;;;;6066703;23;20381;-77
2023/02/18 08:49:06;;;;;;;4.68;4.47;;;7.30;99.90;;;;;;6066520;23;20369;-78
2023/02/18 08:51:33;;;;;;;4.43;4.22;;;7.50;99.90;;;;;;6065452;23;20381;-77
2023/02/18 08:54:00;;;;;;;4.97;4.70;;;7.70;99.90;;;;;;6091334;23;20377;-78
2023/02/18 08:56:27;;;;;;;4.93;4.72;;;7.90;99.90;;;;;;6066395;23;20385;-77
2023/02/18 08:58:54;;;;;;;5.30;5.00;;;8.10;99.90;;;;;;6065600;23;20429;-78
2023/02/18 09:01:21;;;;;;;5.35;5.05;;;8.30;99.50;;;;;;6067365;23;20457;-78
2023/02/18 09:03:48;;;;;;;4.82;4.63;;;8.40;98.50;;;;;;6066061;23;20385;-78
2023/02/18 09:06:15;;;;;;;5.22;4.82;;;8.60;98.40;;;;;;6067490;23;20382;-78
2023/02/18 09:08:42;;;;;;;5.10;4.80;;;8.80;96.50;;;;;;6066175;23;20401;-78
2023/02/18 09:11:10;;;;;;;5.18;4.90;;;9.00;95.80;;;;;;6066669;23;20437;-78
2023/02/18 09:13:37;;;;;;;5.40;5.10;;;9.10;95.10;;;;;;6090530;23;20378;-78
2023/02/18 09:16:11;;;;;;;5.00;4.80;;;9.20;94.70;;;;;;6066804;23;20401;-78
2023/02/18 09:18:39;;;;;;;5.00;4.70;;;9.50;94.10;;;;;;6065780;23;20415;-78
2023/02/18 09:21:08;;;;;;;5.28;4.97;;;9.60;92.90;;;;;;6067124;23;20788;-78
2023/02/18 09:23:35;;;;;;;5.60;5.30;;;9.70;92.60;;;;;;6066495;23;20722;-78
2023/02/18 09:26:08;;;;;;;5.47;5.18;;;9.90;91.70;;;;;;6067561;23;20376;-78
2023/02/18 09:28:35;;;;;;;5.28;4.97;;;10.00;90.60;;;;;;6066459;23;20755;-78
2023/02/18 09:31:22;;;;;;;5.93;5.57;;;10.00;90.80;;;;;;6067047;23;20400;-78
2023/02/18 09:33:53;;;;;;;5.95;5.55;;;10.00;90.60;;;;;;6092064;23;20378;-77
2023/02/18 09:36:20;;;;;;;5.30;5.00;;;10.20;91.00;;;;;;6043483;23;20460;-78
2023/02/18 09:38:48;;;;;;;5.70;5.38;;;10.30;90.40;;;;;;6089927;23;20440;-77
2023/02/18 09:41:33;;;;;;;5.75;5.45;;;10.40;90.50;;;;;;6090927;23;20388;-80
2023/02/18 09:44:25;;;;;;;5.28;5.07;;;10.60;90.20;;;;;;6065379;23;20373;-78
2023/02/18 09:46:54;;;;;;;5.43;5.03;;;10.70;86.90;;;;;;6064962;23;20787;-78
2023/02/18 09:49:25;;;;;;;5.20;4.90;;;10.70;86.00;;;;;;6091506;23;20378;-78
2023/02/18 09:51:54;;;;;;;5.43;5.13;;;10.90;84.40;;;;;;6065920;23;20384;-78
2023/02/18 09:54:22;;;;;;;5.25;5.05;;;11.10;86.00;;;;;;6092864;23;20405;-79
2023/02/18 09:56:50;;;;;;;5.63;5.32;;;11.30;84.10;;;;;;6090568;23;20441;-78
2023/02/18 09:59:21;;;;;;;4.68;4.47;;;11.40;82.10;;;;;;6067187;23;20411;-78
2023/02/18 10:01:53;;;;;;;4.97;4.68;;;11.50;79.30;;;;;;6065830;23;20448;-78
2023/02/18 10:04:23;;;;;;;4.95;4.68;;;11.60;78.50;;;;;;6092030;23;20408;-79
2023/02/18 10:06:53;;;;;;;5.22;5.03;;;11.70;76.60;;;;;;6053438;23;20460;-78
2023/02/18 10:09:28;;;;;;;5.53;5.22;;;11.90;74.50;;;;;;6066493;23;20858;-80
2023/02/18 10:11:59;;;;;;;4.95;4.65;;;11.90;73.80;;;;;;6091316;23;20385;-78
2023/02/18 10:14:26;;;;;;;4.80;4.60;;;12.00;73.90;;;;;;6093798;23;20397;-79
2023/02/18 10:16:53;;;;;;;4.63;4.43;;;12.10;73.60;;;;;;6093139;23;20374;-78
2023/02/18 10:19:27;;;;;;;4.43;4.22;;;12.20;70.40;;;;;;6091862;23;20381;-78
2023/02/18 10:22:00;;;;;;;4.95;4.68;;;12.40;70.10;;;;;;6066138;23;20370;-78
2023/02/18 10:24:42;;;;;;;5.10;4.80;;;12.40;68.00;;;;;;6067241;23;20631;-78
2023/02/18 10:27:26;;;;;;;5.10;4.80;;;12.40;69.70;;;;;;6066774;23;20468;-79
2023/02/18 10:29:55;;;;;;;4.32;4.13;;;12.50;69.60;;;;;;6067151;23;20377;-78
2023/02/18 10:32:26;;;;;;;4.32;4.13;;;12.60;67.90;;;;;;6094562;23;20369;-78
2023/02/18 10:35:13;;;;;;;4.10;3.90;;;12.70;66.50;;;;;;6092290;23;20428;-79
2023/02/18 10:37:52;;;;;;;4.57;4.28;;;12.90;64.40;;;;;;6066839;23;20761;-78
2023/02/18 10:40:28;;;;;;;4.63;4.32;;;13.00;63.70;;;;;;6092139;23;20373;-77
2023/02/18 10:43:30;;;;;;;4.10;3.90;;;13.20;62.60;;;;;;6091899;23;20374;-79
2023/02/18 10:46:35;;;;;;;4.07;3.78;;;13.30;61.60;;;;;;6067036;23;20378;-78
2023/02/18 10:49:33;;;;;;;3.65;3.45;;;13.40;59.70;;;;;;6065042;23;20380;-78
2023/02/18 10:52:04;;;;;;;3.65;3.42;;;13.40;59.70;;;;;;6067023;23;20385;-78
2023/02/18 10:55:05;;;;;;;3.70;3.50;;;13.50;59.70;;;;;;6093761;23;20377;-78
2023/02/18 10:57:32;;;;;;;71.37;13.80;;;13.60;59.30;;;;;;6092603;23;20382;-78
2023/02/18 11:00:14;;;;;;;70.53;22.20;;;13.30;58.10;;;;;;6067853;23;20388;-78
2023/02/18 11:02:42;;;;;;;31.63;9.38;;;13.50;58.10;;;;;;6066636;23;20749;-76
2023/02/18 11:05:23;;;;;;;150.00;32.00;;;13.70;58.10;;;;;;6067898;23;20445;-76
2023/02/18 11:07:53;;;;;;;3.13;2.93;;;13.80;56.20;;;;;;6092769;23;20687;-77
2023/02/18 11:10:26;;;;;;;19.73;6.55;;;13.90;55.20;;;;;;6068525;23;20714;-76
2023/02/18 11:13:08;;;;;;;3.20;2.97;;;14.10;55.80;;;;;;6066762;23;20748;-77
2023/02/18 11:15:35;;;;;;;3.00;2.80;;;14.00;56.20;;;;;;6091926;23;20452;-78
2023/02/18 11:18:23;;;;;;;2.90;2.80;;;14.10;57.00;;;;;;6067988;23;20381;-78
2023/02/18 11:21:05;;;;;;;3.80;3.55;;;14.00;57.90;;;;;;6066336;23;20432;-77
2023/02/18 11:23:45;;;;;;;3.75;3.47;;;14.10;57.20;;;;;;6066545;23;20381;-76
2023/02/18 11:26:15;;;;;;;3.33;3.13;;;14.20;57.50;;;;;;6068166;23;20448;-76
2023/02/18 11:28:50;;;;;;;3.53;3.33;;;14.20;57.30;;;;;;6092322;23;20378;-76
2023/02/18 11:31:24;;;;;;;3.55;3.35;;;14.00;58.10;;;;;;6092903;23;20389;-77
2023/02/18 11:33:53;;;;;;;3.60;3.40;;;14.10;58.30;;;;;;6092108;23;20873;-76
2023/02/18 11:36:27;;;;;;;3.45;3.25;;;14.00;58.90;;;;;;6067795;23;20385;-76
2023/02/18 11:39:03;;;;;;;3.40;3.30;;;14.10;59.20;;;;;;6091266;23;20388;-76
2023/02/18 11:41:38;;;;;;;3.50;3.30;;;14.30;58.40;;;;;;6067549;23;20396;-77
2023/02/18 11:44:26;;;;;;;3.78;3.58;;;14.30;58.00;;;;;;6067124;23;20486;-76
2023/02/18 11:47:05;;;;;;;3.55;3.35;;;14.40;58.60;;;;;;6056401;23;20838;-77
2023/02/18 11:49:34;;;;;;;3.33;3.13;;;14.60;57.50;;;;;;6093033;23;20413;-76
2023/02/18 11:52:11;;;;;;;3.55;3.35;;;14.70;57.70;;;;;;6066288;23;20905;-76
2023/02/18 11:54:37;;;;;;;3.60;3.40;;;14.80;57.40;;;;;;6093162;23;20373;-77
2023/02/18 11:57:09;;;;;;;3.60;3.40;;;14.70;57.60;;;;;;6066489;23;20369;-74
2023/02/18 11:59:38;;;;;;;3.53;3.33;;;14.80;57.70;;;;;;6093244;23;20370;-76
2023/02/18 12:02:32;;;;;;;4.18;3.97;;;14.70;57.10;;;;;;6091400;23;20742;-76
2023/02/18 12:05:19;;;;;;;3.38;3.25;;;14.60;56.40;;;;;;6091976;23;20433;-75
2023/02/18 12:08:06;;;;;;;3.15;2.95;;;14.40;58.20;;;;;;6091717;23;20378;-76
2023/02/18 12:10:36;;;;;;;3.20;3.10;;;14.60;58.10;;;;;;6067848;23;20378;-76
2023/02/18 12:13:12;;;;;;;3.23;3.03;;;14.80;57.30;;;;;;6091582;23;20389;-74
2023/02/18 12:15:44;;;;;;;3.55;3.35;;;15.00;56.40;;;;;;6068559;23;20917;-75
2023/02/18 12:18:17;;;;;;;3.20;3.10;;;14.80;57.00;;;;;;6091687;23;20387;-76
2023/02/18 12:21:05;;;;;;;3.40;3.20;;;15.20;56.70;;;;;;6067355;23;20412;-76
2023/02/18 12:24:03;;;;;;;2.95;2.75;;;15.70;55.80;;;;;;6066288;23;20385;-76
2023/02/18 12:26:48;;;;;;;3.35;3.15;;;16.10;56.70;;;;;;6045213;23;20401;-76
2023/02/18 12:29:52;;;;;;;3.78;3.58;;;16.10;52.50;;;;;;6066713;23;20386;-76
2023/02/18 12:32:43;;;;;;;6.40;6.00;;;16.10;54.20;;;;;;6092060;23;20378;-75
2023/02/18 12:35:42;;;;;;;3.20;3.08;;;15.70;54.10;;;;;;6066767;23;20456;-76
2023/02/18 12:38:46;;;;;;;3.00;2.90;;;16.00;53.80;;;;;;6043567;23;20924;-77
2023/02/18 12:41:28;;;;;;;3.63;3.42;;;16.20;52.90;;;;;;6091294;23;20377;-76
2023/02/18 12:44:29;;;;;;;3.33;3.05;;;15.80;52.90;;;;;;6092581;23;20754;-76
2023/02/18 12:47:23;;;;;;;3.50;3.30;;;15.50;54.00;;;;;;6066969;23;20369;-77
2023/02/18 12:50:11;;;;;;;3.13;2.97;;;15.70;54.50;;;;;;6066615;23;20386;-77
2023/02/18 12:52:47;;;;;;;3.60;3.40;;;15.90;52.90;;;;;;6066734;23;20742;-77
2023/02/18 12:55:17;;;;;;;3.55;3.30;;;16.00;53.20;;;;;;6067187;23;20389;-76
2023/02/18 12:57:54;;;;;;;3.25;3.05;;;15.90;53.60;;;;;;6092857;23;20417;-77
2023/02/18 13:00:35;;;;;;;3.58;3.38;;;16.20;52.70;;;;;;6092841;23;20695;-76
2023/02/18 13:03:41;;;;;;;3.43;3.27;;;15.70;52.90;;;;;;6092671;23;20384;-77
2023/02/18 13:06:28;;;;;;;3.20;3.10;;;15.80;53.60;;;;;;6077251;23;20377;-78
2023/02/18 13:09:16;;;;;;;3.35;3.15;;;16.40;52.80;;;;;;6067566;23;20381;-77
2023/02/18 13:12:06;;;;;;;3.22;3.03;;;16.50;51.80;;;;;;6068497;23;20382;-77
2023/02/18 13:14:41;;;;;;;3.10;3.00;;;16.40;51.60;;;;;;6092777;23;20377;-77
2023/02/18 13:17:11;;;;;;;3.90;3.70;;;15.90;52.50;;;;;;6066735;23;20401;-77
2023/02/18 13:19:45;;;;;;;3.40;3.20;;;16.10;53.00;;;;;;6093119;23;20412;-76
2023/02/18 13:22:15;;;;;;;4.87;4.50;;;16.20;52.20;;;;;;6067136;23;20494;-76
2023/02/18 13:24:46;;;;;;;3.20;3.10;;;15.90;52.60;;;;;;6092344;23;20412;-77
2023/02/18 13:27:20;;;;;;;10.37;9.57;;;15.80;53.20;;;;;;6068577;23;20935;-76
2023/02/18 13:30:18;;;;;;;5.68;5.38;;;15.70;53.20;;;;;;6068745;23;20492;-77
2023/02/18 13:33:12;;;;;;;3.25;3.10;;;15.80;53.30;;;;;;6068591;23;20475;-77
2023/02/18 13:36:05;;;;;;;3.08;2.97;;;16.40;52.80;;;;;;6067562;23;20385;-77
2023/02/18 13:38:50;;;;;;;3.00;2.90;;;16.70;51.30;;;;;;6063746;23;20389;-77
2023/02/18 13:41:19;;;;;;;2.95;2.85;;;17.00;50.60;;;;;;6067907;23;20436;-77
2023/02/18 13:43:47;;;;;;;3.13;2.93;;;17.00;50.00;;;;;;6094177;23;20698;-77